createdAt,value
2019-04-09T00:01:01.794Z,46.74
2019-04-09T00:03:44.004Z,46.74
2019-04-09T00:06:23.817Z,46.20
2019-04-09T00:08:56.614Z,46.51
2019-04-09T00:11:47.617Z,46.93
2019-04-09T00:20:08.201Z,46.44
2019-04-09T00:22:59.556Z,46.27
2019-04-09T00:25:30.785Z,46.07
2019-04-09T00:28:20.822Z,45.83
2019-04-09T00:31:10.802Z,45.84
2019-04-09T00:34:00.829Z,45.84
2019-04-09T00:36:33.834Z,46.12
2019-04-09T00:39:06.706Z,46.32
2019-04-09T00:44:39.481Z,46.52
2019-04-09T00:47:10.468Z,46.28
2019-04-09T00:50:00.739Z,46.63
2019-04-09T00:52:34.158Z,46.79
2019-04-09T00:55:26.728Z,47.23
2019-04-09T00:57:59.414Z,47.47
2019-04-09T01:03:46.946Z,47.72
2019-04-09T01:06:17.134Z,47.78
2019-04-09T01:12:08.555Z,48.56
2019-04-09T01:14:38.713Z,48.44
2019-04-09T01:17:09.148Z,48.48
2019-04-09T01:19:42.372Z,48.44
2019-04-09T01:22:18.273Z,48.44
2019-04-09T01:25:08.654Z,49.04
2019-04-09T01:30:59.738Z,49.54
2019-04-09T01:33:49.399Z,49.54
2019-04-09T01:36:58.060Z,49.86
2019-04-09T01:39:48.292Z,49.84
2019-04-09T01:42:58.026Z,49.71
2019-04-09T01:45:36.013Z,49.79
2019-04-09T01:48:47.222Z,49.84
2019-04-09T01:51:55.664Z,49.84
2019-04-09T01:54:48.383Z,49.77
2019-04-09T01:57:38.046Z,49.43
2019-04-09T02:00:46.007Z,50.01
2019-04-09T02:03:33.566Z,50.32
2019-04-09T02:06:25.043Z,50.81
2019-04-09T02:09:15.640Z,50.50
2019-04-09T02:12:25.388Z,50.62
2019-04-09T02:15:01.298Z,50.31
2019-04-09T02:17:51.110Z,50.65
2019-04-09T02:20:55.555Z,50.53
2019-04-09T02:23:52.531Z,50.70
2019-04-09T02:26:43.192Z,50.46
2019-04-09T02:29:51.898Z,50.52
2019-04-09T02:32:52.863Z,50.42
2019-04-09T02:36:06.207Z,50.42
2019-04-09T02:38:56.709Z,50.50
2019-04-09T02:42:06.267Z,49.83
2019-04-09T02:44:55.841Z,50.09
2019-04-09T02:47:54.031Z,49.86
2019-04-09T02:50:45.973Z,50.25
2019-04-09T02:53:35.907Z,50.25
2019-04-09T02:56:25.586Z,50.35
2019-04-09T03:02:30.324Z,49.89
2019-04-09T03:05:38.987Z,50.18
2019-04-09T03:08:45.814Z,50.29
2019-04-09T03:11:56.367Z,50.90
2019-04-09T03:14:46.802Z,51.02
2019-04-09T03:17:56.505Z,51.02
2019-04-09T03:21:06.273Z,50.88
2019-04-09T03:24:07.842Z,50.81
2019-04-09T03:26:59.186Z,51.59
2019-04-09T03:30:10.186Z,51.59
2019-04-09T03:32:53.854Z,51.13
2019-04-09T03:36:02.670Z,50.87
2019-04-09T03:39:11.504Z,51.02
2019-04-09T03:42:10.115Z,51.05
2019-04-09T03:45:13.032Z,51.33
2019-04-09T03:48:21.737Z,51.73
2019-04-09T03:51:11.560Z,52.14
2019-04-09T03:54:01.861Z,52.31
2019-04-09T03:56:51.553Z,52.30
2019-04-09T03:59:56.603Z,52.17
2019-04-09T04:02:46.812Z,52.05
2019-04-09T04:05:55.515Z,52.39
2019-04-09T04:08:45.455Z,52.51
2019-04-09T04:11:54.301Z,52.83
2019-04-09T04:14:50.089Z,52.86
2019-04-09T04:17:46.681Z,52.97
2019-04-09T04:20:37.559Z,53.06
2019-04-09T04:23:47.465Z,53.00
2019-04-09T04:26:37.155Z,52.86
2019-04-09T04:29:45.963Z,52.62
2019-04-09T04:32:35.738Z,52.74
2019-04-09T04:35:26.469Z,52.47
2019-04-09T04:38:18.624Z,52.22
2019-04-09T04:41:28.405Z,51.91
2019-04-09T04:44:18.114Z,51.63
2019-04-09T04:47:07.991Z,51.29
2019-04-09T04:49:58.034Z,50.47
2019-04-09T04:53:06.591Z,51.11
2019-04-09T04:56:01.360Z,50.90
2019-04-09T04:59:11.761Z,50.31
2019-04-09T05:02:02.870Z,50.41
2019-04-09T05:05:12.569Z,50.06
2019-04-09T05:08:02.319Z,50.22
2019-04-09T05:11:13.229Z,50.50
2019-04-09T05:14:03.339Z,50.73
2019-04-09T05:17:12.157Z,50.89
2019-04-09T05:20:21.536Z,51.20
2019-04-09T05:23:31.763Z,51.20
2019-04-09T05:26:22.099Z,50.95
2019-04-09T05:29:22.175Z,51.08
2019-04-09T05:32:13.752Z,51.15
2019-04-09T05:38:13.441Z,50.56
2019-04-09T05:41:31.845Z,50.69
2019-04-09T05:44:29.483Z,50.87
2019-04-09T05:47:38.989Z,50.76
2019-04-09T05:50:28.687Z,51.40
2019-04-09T05:53:36.582Z,51.63
2019-04-09T05:56:27.781Z,50.93
2019-04-09T05:59:37.492Z,51.14
2019-04-09T06:02:27.630Z,51.14
2019-04-09T06:05:36.577Z,50.55
2019-04-09T06:08:36.428Z,49.56
2019-04-09T06:14:10.727Z,49.84
2019-04-09T06:16:41.168Z,49.77
2019-04-09T06:19:32.604Z,49.67
2019-04-09T06:25:31.724Z,49.46
2019-04-09T06:28:21.859Z,48.04
2019-04-09T06:34:26.653Z,45.51
2019-04-09T06:40:39.995Z,44.77
2019-04-09T06:43:31.090Z,44.77
2019-04-09T06:49:23.137Z,42.85
2019-04-09T06:52:32.602Z,42.06
2019-04-09T06:55:26.956Z,41.41
2019-04-09T07:01:54.050Z,41.72
2019-04-09T07:05:02.875Z,41.44
2019-04-09T07:08:15.221Z,41.08
2019-04-09T07:11:26.170Z,40.85
2019-04-09T07:14:16.887Z,40.14
2019-04-09T07:17:26.606Z,40.80
2019-04-09T07:20:19.135Z,41.77
2019-04-09T07:23:28.077Z,42.50
2019-04-09T07:26:29.575Z,42.37
2019-04-09T07:32:47.992Z,43.54
2019-04-09T07:36:11.462Z,42.67
2019-04-09T07:39:26.549Z,42.51
2019-04-09T07:42:00.091Z,41.76
2019-04-09T07:48:00.849Z,42.22
2019-04-09T07:50:51.388Z,42.17
2019-04-09T07:54:04.546Z,41.21
2019-04-09T07:57:05.952Z,42.62
2019-04-09T08:00:22.039Z,42.62
2019-04-09T08:03:47.008Z,41.77
2019-04-09T08:10:22.049Z,41.24
2019-04-09T08:13:33.683Z,41.53
2019-04-09T08:16:19.066Z,42.64
2019-04-09T08:19:37.947Z,43.25
2019-04-09T08:22:43.020Z,43.76
2019-04-09T08:25:46.311Z,44.14
2019-04-09T08:29:05.015Z,45.14
2019-04-09T08:32:19.471Z,45.76
2019-04-09T08:41:57.720Z,46.47
2019-04-09T08:45:25.847Z,47.08
2019-04-09T08:55:00.109Z,44.83
2019-04-09T09:01:43.425Z,44.39
2019-04-09T09:04:18.518Z,44.21
2019-04-09T09:06:58.867Z,44.59
2019-04-09T09:13:15.306Z,43.44
2019-04-09T09:16:25.368Z,42.25
2019-04-09T09:26:03.430Z,41.23
2019-04-09T09:29:13.398Z,41.62
2019-04-09T09:32:13.679Z,41.62
2019-04-09T09:35:30.513Z,40.86
2019-04-09T09:38:25.738Z,40.59
2019-04-09T09:41:36.450Z,40.59
2019-04-09T09:44:47.150Z,40.22
2019-04-09T09:47:58.418Z,39.27
2019-04-09T09:54:46.948Z,37.62
2019-04-09T09:57:53.044Z,37.03
2019-04-09T10:00:24.121Z,37.05
2019-04-09T10:03:15.899Z,37.37
2019-04-09T10:06:27.567Z,36.28
2019-04-09T10:13:06.907Z,35.79
2019-04-09T10:16:16.248Z,35.79
2019-04-09T10:22:35.412Z,35.90
2019-04-09T10:32:11.223Z,34.85
2019-04-09T10:35:04.166Z,35.42
2019-04-09T10:38:21.664Z,35.10
2019-04-09T10:41:34.249Z,35.23
2019-04-09T10:44:22.533Z,34.42
2019-04-09T10:47:16.227Z,33.39
2019-04-09T10:50:31.548Z,33.39
2019-04-09T10:53:35.791Z,33.58
2019-04-09T10:56:43.971Z,33.58
2019-04-09T10:59:53.638Z,33.66
2019-04-09T11:03:03.285Z,33.07
2019-04-09T11:06:11.709Z,32.90
2019-04-09T11:09:04.267Z,32.61
2019-04-09T11:12:16.501Z,32.72
2019-04-09T11:25:20.243Z,31.84
2019-04-09T11:28:28.774Z,31.68
2019-04-09T11:31:45.449Z,31.99
2019-04-09T11:34:37.884Z,30.63
2019-04-09T11:40:51.633Z,31.32
2019-04-09T11:43:42.907Z,29.65
2019-04-09T11:47:23.192Z,29.93
2019-04-09T11:53:05.874Z,30.45
2019-04-09T11:56:13.751Z,30.51
2019-04-09T11:59:26.818Z,30.04
2019-04-09T12:02:14.419Z,30.73
2019-04-09T12:08:41.913Z,29.58
2019-04-09T12:11:52.783Z,29.38
2019-04-09T12:15:16.254Z,29.04
2019-04-09T12:18:03.921Z,29.04
2019-04-09T12:26:59.515Z,28.33
2019-04-09T12:30:09.006Z,27.93
2019-04-09T12:36:21.590Z,26.23
2019-04-09T12:39:11.690Z,26.23
2019-04-09T12:42:21.893Z,26.58
2019-04-09T12:48:12.661Z,26.23
2019-04-09T12:51:04.769Z,25.43
2019-04-09T12:54:16.002Z,25.76
2019-04-09T12:57:07.221Z,25.53
2019-04-09T13:00:16.644Z,24.94
2019-04-09T13:03:25.306Z,25.06
2019-04-09T13:06:27.392Z,24.95
2019-04-09T13:09:38.127Z,24.75
2019-04-09T13:12:46.547Z,24.29
2019-04-09T13:15:54.713Z,24.29
2019-04-09T13:19:03.091Z,24.29
2019-04-09T13:22:12.937Z,24.28
2019-04-09T13:25:03.314Z,24.40
2019-04-09T13:27:52.859Z,24.00
2019-04-09T13:30:49.788Z,23.86
2019-04-09T13:33:40.455Z,23.51
2019-04-09T13:36:30.288Z,22.57
2019-04-09T13:39:30.048Z,22.58
2019-04-09T13:42:18.393Z,22.98
2019-04-09T13:45:09.236Z,22.68
2019-04-09T13:48:02.831Z,22.58
2019-04-09T13:51:05.442Z,22.97
2019-04-09T13:53:37.250Z,23.08
2019-04-09T13:56:20.999Z,22.43
2019-04-09T13:58:56.459Z,22.20
2019-04-09T14:01:30.469Z,21.82
2019-04-09T14:04:13.548Z,21.66
2019-04-09T14:06:46.600Z,21.95
2019-04-09T14:09:22.687Z,22.59
2019-04-09T14:12:19.032Z,22.87
2019-04-09T14:14:51.861Z,23.50
2019-04-09T14:17:23.944Z,24.03
2019-04-09T14:19:58.365Z,23.96
2019-04-09T14:22:32.762Z,24.01
2019-04-09T14:25:07.450Z,24.01
2019-04-09T14:27:43.612Z,24.59
2019-04-09T14:30:24.283Z,23.80
2019-04-09T14:36:36.304Z,23.59
2019-04-09T14:39:14.666Z,23.01
2019-04-09T14:41:50.962Z,22.45
2019-04-09T14:44:27.957Z,22.49
2019-04-09T14:47:06.143Z,22.36
2019-04-09T14:49:37.446Z,22.52
2019-04-09T14:52:09.983Z,22.24
2019-04-09T14:54:43.753Z,22.89
2019-04-09T14:57:18.654Z,22.89
2019-04-09T14:59:52.670Z,23.07
2019-04-09T15:02:26.895Z,23.50
2019-04-09T15:04:58.816Z,22.16
2019-04-09T15:07:30.589Z,21.77
2019-04-09T15:10:04.769Z,22.49
2019-04-09T15:12:40.455Z,24.00
2019-04-09T15:15:16.229Z,25.62
2019-04-09T15:18:06.724Z,27.40
2019-04-09T15:20:48.165Z,28.91
2019-04-09T15:23:23.581Z,30.23
2019-04-09T15:25:55.411Z,30.78
2019-04-09T15:28:40.735Z,30.13
2019-04-09T15:31:20.661Z,31.67
2019-04-09T15:34:25.293Z,31.67
2019-04-09T15:36:58.970Z,32.78
2019-04-09T15:39:48.523Z,34.12
2019-04-09T15:42:26.336Z,34.79
2019-04-09T15:45:07.021Z,36.00
2019-04-09T15:47:45.382Z,36.00
2019-04-09T15:50:28.442Z,35.77
2019-04-09T15:53:01.778Z,35.77
2019-04-09T15:55:47.686Z,36.21
2019-04-09T15:58:18.651Z,35.79
2019-04-09T16:00:52.726Z,35.79
2019-04-09T16:03:45.873Z,35.80
2019-04-09T16:06:14.888Z,34.82
2019-04-09T16:08:54.652Z,34.82
2019-04-09T16:11:35.398Z,35.12
2019-04-09T16:14:08.246Z,35.36
2019-04-09T16:16:43.951Z,35.38
2019-04-09T16:19:14.931Z,35.19
2019-04-09T16:21:48.996Z,35.11
2019-04-09T16:24:27.639Z,35.10
2019-04-09T16:27:01.705Z,35.06
2019-04-09T16:29:50.925Z,35.06
2019-04-09T16:32:29.733Z,35.54
2019-04-09T16:37:31.934Z,39.05
2019-04-09T16:37:59.698Z,39.05
2019-04-09T16:40:31.194Z,41.08
2019-04-09T16:43:08.192Z,41.94
2019-04-09T16:45:48.072Z,42.47
2019-04-09T16:48:20.280Z,43.38
2019-04-09T16:51:26.843Z,44.01
2019-04-09T16:54:13.895Z,44.67
2019-04-09T16:56:57.270Z,44.87
2019-04-09T16:59:31.779Z,44.53
2019-04-09T17:02:02.558Z,44.69
2019-04-09T17:04:37.788Z,44.97
2019-04-09T17:07:15.440Z,45.24
2019-04-09T17:09:51.808Z,44.21
2019-04-09T17:12:26.270Z,43.86
2019-04-09T17:15:04.041Z,44.42
2019-04-09T17:17:40.470Z,44.17
2019-04-09T17:20:21.878Z,44.52
2019-04-09T17:23:07.251Z,44.12
2019-04-09T17:25:42.660Z,43.69
2019-04-09T17:28:46.071Z,43.12
2019-04-09T17:31:21.013Z,43.12
2019-04-09T17:33:51.842Z,42.84
2019-04-09T17:36:24.418Z,42.60
2019-04-09T17:39:00.348Z,42.56
2019-04-09T17:41:30.527Z,42.31
2019-04-09T17:44:04.427Z,42.95
2019-04-09T17:46:43.266Z,43.97
2019-04-09T17:49:20.695Z,45.13
2019-04-09T17:51:52.391Z,46.94
2019-04-09T17:54:22.413Z,46.94
2019-04-09T17:56:54.604Z,47.05
2019-04-09T17:59:35.865Z,47.68
2019-04-09T18:02:07.538Z,47.86
2019-04-09T18:04:49.514Z,47.97
2019-04-09T18:07:14.403Z,48.73
2019-04-09T18:09:51.752Z,49.75
2019-04-09T18:12:25.440Z,50.42
2019-04-09T18:15:01.063Z,50.88
2019-04-09T18:17:33.851Z,51.21
2019-04-09T18:20:05.556Z,51.31
2019-04-09T18:22:37.842Z,51.35
2019-04-09T18:25:11.628Z,51.12
2019-04-09T18:27:43.737Z,50.79
2019-04-09T18:30:20.223Z,50.33
2019-04-09T18:32:54.131Z,50.53
2019-04-09T18:35:25.986Z,50.53
2019-04-09T18:37:59.010Z,50.07
2019-04-09T18:40:32.301Z,50.64
2019-04-09T18:43:02.807Z,50.60
2019-04-09T18:45:35.669Z,50.19
2019-04-09T18:48:08.547Z,50.19
2019-04-09T18:50:43.340Z,50.17
2019-04-09T18:53:14.429Z,49.61
2019-04-09T18:55:48.703Z,48.91
2019-04-09T18:58:21.277Z,48.34
2019-04-09T19:00:54.976Z,49.22
2019-04-09T19:03:27.782Z,49.22
2019-04-09T19:05:58.809Z,48.78
2019-04-09T19:08:38.868Z,48.83
2019-04-09T19:11:12.163Z,47.84
2019-04-09T19:13:51.856Z,47.15
2019-04-09T19:16:24.182Z,46.78
2019-04-09T19:18:55.831Z,46.28
2019-04-09T19:21:30.275Z,45.88
2019-04-09T19:24:00.394Z,45.16
2019-04-09T19:26:40.170Z,44.53
2019-04-09T19:29:12.825Z,43.87
2019-04-09T19:31:45.375Z,43.87
2019-04-09T19:34:17.275Z,43.97
2019-04-09T19:36:48.458Z,44.05
2019-04-09T19:39:19.233Z,42.69
2019-04-09T19:42:03.070Z,41.51
2019-04-09T19:44:27.408Z,41.69
2019-04-09T19:49:30.652Z,41.82
2019-04-09T19:52:02.125Z,42.37
2019-04-09T19:54:35.694Z,42.52
2019-04-09T19:57:06.402Z,41.99
2019-04-09T19:59:38.410Z,41.75
2019-04-09T20:02:10.136Z,42.20
2019-04-09T20:04:45.398Z,42.25
2019-04-09T20:07:18.365Z,42.25
2019-04-09T20:09:55.860Z,42.44
2019-04-09T20:12:29.367Z,42.78
2019-04-09T20:15:06.146Z,42.31
2019-04-09T20:17:33.539Z,42.27
2019-04-09T20:20:03.828Z,42.95
2019-04-09T20:22:35.085Z,42.78
2019-04-09T20:25:07.860Z,42.78
2019-04-09T20:27:39.311Z,43.11
2019-04-09T20:30:14.404Z,43.28
2019-04-09T20:32:44.524Z,43.59
2019-04-09T20:35:17.517Z,43.98
2019-04-09T20:37:47.001Z,43.76
2019-04-09T20:40:26.165Z,43.20
2019-04-09T20:43:01.308Z,43.12
2019-04-09T20:45:33.086Z,43.27
2019-04-09T20:48:06.898Z,42.85
2019-04-09T20:50:42.005Z,42.71
2019-04-09T20:53:20.103Z,42.83
2019-04-09T20:55:54.224Z,42.87
2019-04-09T20:58:24.627Z,42.87
2019-04-09T21:01:13.181Z,42.99
2019-04-09T21:04:04.072Z,42.99
2019-04-09T21:06:33.380Z,42.91
2019-04-09T21:09:04.432Z,42.93
2019-04-09T21:11:42.424Z,42.64
2019-04-09T21:14:13.952Z,42.67
2019-04-09T21:16:44.940Z,42.35
2019-04-09T21:19:16.440Z,42.67
2019-04-09T21:21:47.823Z,42.84
2019-04-09T21:24:18.100Z,42.39
2019-04-09T21:26:52.039Z,42.44
2019-04-09T21:29:29.259Z,42.28
2019-04-09T21:32:02.176Z,42.64
2019-04-09T21:34:33.519Z,42.52
2019-04-09T21:37:08.063Z,42.73
2019-04-09T21:39:43.327Z,42.86
2019-04-09T21:42:16.110Z,42.17
2019-04-09T21:44:51.397Z,42.42
2019-04-09T21:47:24.917Z,42.42
2019-04-09T21:49:56.057Z,42.24
2019-04-09T21:52:28.644Z,42.51
2019-04-09T21:55:00.134Z,42.57
2019-04-09T21:57:53.805Z,42.33
2019-04-09T22:00:30.356Z,42.32
2019-04-09T22:03:05.040Z,42.38
2019-04-09T22:05:53.142Z,42.55
2019-04-09T22:08:30.127Z,42.25
2019-04-09T22:11:02.242Z,42.33
2019-04-09T22:13:35.116Z,42.61
2019-04-09T22:16:07.326Z,42.77
2019-04-09T22:18:45.993Z,42.64
2019-04-09T22:21:18.570Z,42.64
2019-04-09T22:23:55.032Z,42.26
2019-04-09T22:26:25.712Z,42.18
2019-04-09T22:29:00.966Z,42.22
2019-04-09T22:31:35.978Z,41.99
2019-04-09T22:34:08.032Z,42.15
2019-04-09T22:36:41.652Z,42.37
2019-04-09T22:39:12.682Z,42.28
2019-04-09T22:41:49.274Z,42.19
2019-04-09T22:44:31.059Z,42.05
2019-04-09T22:47:05.089Z,42.05
2019-04-09T22:49:41.484Z,42.56
2019-04-09T22:52:12.079Z,42.43
2019-04-09T22:54:46.899Z,42.38
2019-04-09T22:57:18.534Z,42.25
2019-04-09T22:59:50.153Z,42.26
2019-04-09T23:02:41.126Z,42.29
2019-04-09T23:05:39.327Z,42.34
2019-04-09T23:08:20.989Z,41.84
2019-04-09T23:11:06.337Z,42.25
2019-04-09T23:13:39.659Z,42.24
2019-04-09T23:16:33.852Z,42.24
2019-04-09T23:19:05.670Z,42.28
2019-04-09T23:21:41.587Z,42.16
2019-04-09T23:24:15.642Z,41.91
2019-04-09T23:26:48.093Z,41.91
2019-04-09T23:29:22.911Z,42.23
2019-04-09T23:31:54.936Z,42.07
2019-04-09T23:34:26.797Z,42.11
2019-04-09T23:37:01.892Z,41.89
2019-04-09T23:39:30.819Z,41.99
2019-04-09T23:42:01.479Z,42.29
2019-04-09T23:44:38.444Z,42.43
2019-04-09T23:47:05.811Z,42.21
2019-04-09T23:49:39.765Z,42.36
2019-04-09T23:52:13.195Z,42.53
2019-04-09T23:54:46.012Z,42.53
2019-04-09T23:57:18.434Z,42.31
2019-04-09T23:59:50.506Z,42.14
